sensor_id;sensor_type;location;lat;lon;timestamp;pressure;altitude;pressure_sealevel;temperature;humidity
19447;BME280;9862;49.462;11.054;2023-07-22T00:00:59;97927.03;;;18.92;100.00
19447;BME280;9862;49.462;11.054;2023-07-22T00:03:26;97930.25;;;18.88;100.00
19447;BME280;9862;49.462;11.054;2023-07-22T00:06:02;97928.59;;;18.77;100.00
19447;BME280;9862;49.462;11.054;2023-07-22T00:08:29;97934.81;;;18.83;100.00
19447;BME280;9862;49.462;11.054;2023-07-22T00:10:56;97925.09;;;18.77;100.00
19447;BME280;9862;49.462;11.054;2023-07-22T00:13:25;97936.69;;;18.77;100.00
19447;BME280;9862;49.462;11.054;2023-07-22T00:15:52;97934.09;;;19.03;100.00
19447;BME280;9862;49.462;11.054;2023-07-22T00:18:19;97942.09;;;18.87;100.00
19447;BME280;9862;49.462;11.054;2023-07-22T00:20:45;97937.53;;;18.83;100.00
19447;BME280;9862;49.462;11.054;2023-07-22T00:23:15;97927.84;;;18.92;100.00
19447;BME280;9862;49.462;11.054;2023-07-22T00:25:42;97920.56;;;18.98;100.00
19447;BME280;9862;49.462;11.054;2023-07-22T00:28:08;97920.59;;;19.08;100.00
19447;BME280;9862;49.462;11.054;2023-07-22T00:30:37;97925.41;;;18.96;100.00
19447;BME280;9862;49.462;11.054;2023-07-22T00:33:04;97916.28;;;19.02;100.00
19447;BME280;9862;49.462;11.054;2023-07-22T00:35:31;97926.78;;;19.08;100.00
19447;BME280;9862;49.462;11.054;2023-07-22T00:37:58;97918.41;;;19.00;100.00
19447;BME280;9862;49.462;11.054;2023-07-22T00:40:25;97917.84;;;18.82;100.00
19447;BME280;9862;49.462;11.054;2023-07-22T00:42:52;97918.06;;;18.76;100.00
19447;BME280;9862;49.462;11.054;2023-07-22T00:45:18;97911.13;;;18.95;100.00
19447;BME280;9862;49.462;11.054;2023-07-22T00:47:47;97907.31;;;18.91;100.00
19447;BME280;9862;49.462;11.054;2023-07-22T00:50:14;97907.31;;;18.86;100.00
19447;BME280;9862;49.462;11.054;2023-07-22T00:52:41;97908.66;;;18.88;100.00
19447;BME280;9862;49.462;11.054;2023-07-22T00:55:08;97916.25;;;18.97;100.00
19447;BME280;9862;49.462;11.054;2023-07-22T00:57:36;97909.22;;;19.01;100.00
19447;BME280;9862;49.462;11.054;2023-07-22T01:00:03;97907.63;;;19.00;100.00
19447;BME280;9862;49.462;11.054;2023-07-22T01:02:31;97899.56;;;19.05;100.00
19447;BME280;9862;49.462;11.054;2023-07-22T01:04:59;97909.25;;;18.96;100.00
19447;BME280;9862;49.462;11.054;2023-07-22T01:07:27;97899.50;;;18.90;100.00
19447;BME280;9862;49.462;11.054;2023-07-22T01:09:56;97896.81;;;18.90;100.00
19447;BME280;9862;49.462;11.054;2023-07-22T01:12:24;97901.16;;;18.96;100.00
19447;BME280;9862;49.462;11.054;2023-07-22T01:14:51;97900.34;;;18.95;100.00
19447;BME280;9862;49.462;11.054;2023-07-22T01:17:18;97902.75;;;18.92;100.00
19447;BME280;9862;49.462;11.054;2023-07-22T01:19:46;97906.50;;;18.91;100.00
19447;BME280;9862;49.462;11.054;2023-07-22T01:22:16;97914.91;;;19.09;100.00
19447;BME280;9862;49.462;11.054;2023-07-22T01:24:45;97911.38;;;18.99;100.00
19447;BME280;9862;49.462;11.054;2023-07-22T01:27:12;97899.53;;;18.95;100.00
19447;BME280;9862;49.462;11.054;2023-07-22T01:29:40;97908.69;;;18.99;100.00
19447;BME280;9862;49.462;11.054;2023-07-22T01:32:07;97911.38;;;18.88;100.00
19447;BME280;9862;49.462;11.054;2023-07-22T01:34:34;97904.34;;;18.82;100.00
19447;BME280;9862;49.462;11.054;2023-07-22T01:37:01;97904.31;;;18.77;100.00
19447;BME280;9862;49.462;11.054;2023-07-22T01:39:30;97897.34;;;18.86;100.00
19447;BME280;9862;49.462;11.054;2023-07-22T01:41:59;97905.16;;;18.88;100.00
19447;BME280;9862;49.462;11.054;2023-07-22T01:44:26;97894.59;;;18.71;100.00
19447;BME280;9862;49.462;11.054;2023-07-22T01:46:53;97895.69;;;18.75;100.00
19447;BME280;9862;49.462;11.054;2023-07-22T01:49:19;97889.78;;;18.88;100.00
19447;BME280;9862;49.462;11.054;2023-07-22T01:51:46;97885.72;;;18.76;100.00
19447;BME280;9862;49.462;11.054;2023-07-22T01:54:13;97896.94;;;19.66;100.00
19447;BME280;9862;49.462;11.054;2023-07-22T01:56:41;97887.19;;;20.11;100.00
19447;BME280;9862;49.462;11.054;2023-07-22T01:59:09;97886.06;;;20.22;100.00
19447;BME280;9862;49.462;11.054;2023-07-22T02:01:36;97886.88;;;20.22;100.00
19447;BME280;9862;49.462;11.054;2023-07-22T02:04:03;97886.56;;;20.44;100.00
19447;BME280;9862;49.462;11.054;2023-07-22T02:06:30;97870.75;;;20.77;100.00
19447;BME280;9862;49.462;11.054;2023-07-22T02:08:59;97878.97;;;21.06;100.00
19447;BME280;9862;49.462;11.054;2023-07-22T02:11:33;97891.25;;;20.83;100.00
19447;BME280;9862;49.462;11.054;2023-07-22T02:14:00;97898.31;;;20.79;100.00
19447;BME280;9862;49.462;11.054;2023-07-22T02:16:31;97898.94;;;20.66;100.00
19447;BME280;9862;49.462;11.054;2023-07-22T02:19:00;97896.25;;;20.66;100.00
19447;BME280;9862;49.462;11.054;2023-07-22T02:21:29;97891.88;;;20.70;100.00
19447;BME280;9862;49.462;11.054;2023-07-22T02:23:57;97906.50;;;20.64;100.00
19447;BME280;9862;49.462;11.054;2023-07-22T02:26:27;97902.25;;;20.32;100.00
19447;BME280;9862;49.462;11.054;2023-07-22T02:28:55;97903.09;;;20.12;100.00
19447;BME280;9862;49.462;11.054;2023-07-22T02:31:24;97902.03;;;20.18;100.00
19447;BME280;9862;49.462;11.054;2023-07-22T02:33:53;97913.16;;;19.71;100.00
19447;BME280;9862;49.462;11.054;2023-07-22T02:36:20;97909.34;;;19.52;100.00
19447;BME280;9862;49.462;11.054;2023-07-22T02:38:47;97908.78;;;19.34;100.00
19447;BME280;9862;49.462;11.054;2023-07-22T02:41:14;97913.06;;;19.15;100.00
19447;BME280;9862;49.462;11.054;2023-07-22T02:43:42;97906.63;;;19.36;100.00
19447;BME280;9862;49.462;11.054;2023-07-22T02:46:08;97904.22;;;19.76;100.00
19447;BME280;9862;49.462;11.054;2023-07-22T02:48:35;97903.91;;;20.13;100.00
19447;BME280;9862;49.462;11.054;2023-07-22T02:51:06;97908.19;;;20.39;100.00
19447;BME280;9862;49.462;11.054;2023-07-22T02:53:34;97912.22;;;20.42;100.00
19447;BME280;9862;49.462;11.054;2023-07-22T02:56:03;97913.31;;;20.41;100.00
19447;BME280;9862;49.462;11.054;2023-07-22T02:58:32;97910.31;;;20.52;100.00
19447;BME280;9862;49.462;11.054;2023-07-22T03:00:59;97908.97;;;20.60;100.00
19447;BME280;9862;49.462;11.054;2023-07-22T03:03:27;97913.00;;;20.68;100.00
19447;BME280;9862;49.462;11.054;2023-07-22T03:05:54;97913.97;;;20.87;100.00
19447;BME280;9862;49.462;11.054;2023-07-22T03:08:24;97920.97;;;20.98;100.00
19447;BME280;9862;49.462;11.054;2023-07-22T03:10:51;97914.91;;;21.11;100.00
19447;BME280;9862;49.462;11.054;2023-07-22T03:13:18;97924.66;;;21.18;100.00
19447;BME280;9862;49.462;11.054;2023-07-22T03:15:45;97921.34;;;21.26;100.00
19447;BME280;9862;49.462;11.054;2023-07-22T03:18:13;97913.50;;;21.29;100.00
19447;BME280;9862;49.462;11.054;2023-07-22T03:20:39;97922.69;;;21.33;100.00
19447;BME280;9862;49.462;11.054;2023-07-22T03:23:07;97919.06;;;21.48;100.00
19447;BME280;9862;49.462;11.054;2023-07-22T03:25:35;97912.53;;;21.54;100.00
19447;BME280;9862;49.462;11.054;2023-07-22T03:28:04;97920.88;;;21.58;100.00
19447;BME280;9862;49.462;11.054;2023-07-22T03:30:32;97920.06;;;21.57;100.00
19447;BME280;9862;49.462;11.054;2023-07-22T03:32:59;97924.97;;;21.55;100.00
19447;BME280;9862;49.462;11.054;2023-07-22T03:35:26;97931.78;;;21.53;100.00
19447;BME280;9862;49.462;11.054;2023-07-22T03:37:53;97936.38;;;21.52;100.00
19447;BME280;9862;49.462;11.054;2023-07-22T03:40:20;97941.50;;;21.54;100.00
19447;BME280;9862;49.462;11.054;2023-07-22T03:42:50;97951.47;;;21.58;100.00
19447;BME280;9862;49.462;11.054;2023-07-22T03:45:17;97958.56;;;21.54;100.00
19447;BME280;9862;49.462;11.054;2023-07-22T03:47:45;97954.31;;;21.43;100.00
19447;BME280;9862;49.462;11.054;2023-07-22T03:50:12;97950.28;;;21.35;100.00
19447;BME280;9862;49.462;11.054;2023-07-22T03:52:39;97959.22;;;21.31;100.00
19447;BME280;9862;49.462;11.054;2023-07-22T03:55:06;97964.19;;;21.08;100.00
19447;BME280;9862;49.462;11.054;2023-07-22T03:57:34;97965.16;;;20.73;100.00
19447;BME280;9862;49.462;11.054;2023-07-22T04:00:03;97963.28;;;20.64;100.00
19447;BME280;9862;49.462;11.054;2023-07-22T04:02:30;97967.31;;;20.71;100.00
19447;BME280;9862;49.462;11.054;2023-07-22T04:04:57;97963.00;;;20.75;100.00
19447;BME280;9862;49.462;11.054;2023-07-22T04:07:24;97960.50;;;20.89;100.00
19447;BME280;9862;49.462;11.054;2023-07-22T04:09:50;97962.09;;;20.95;100.00
19447;BME280;9862;49.462;11.054;2023-07-22T04:12:17;97966.44;;;20.96;100.00
19447;BME280;9862;49.462;11.054;2023-07-22T04:14:44;97960.69;;;21.03;100.00
19447;BME280;9862;49.462;11.054;2023-07-22T04:17:12;97957.75;;;21.04;100.00
19447;BME280;9862;49.462;11.054;2023-07-22T04:19:40;97961.75;;;21.12;100.00
19447;BME280;9862;49.462;11.054;2023-07-22T04:22:08;97969.09;;;21.06;100.00
19447;BME280;9862;49.462;11.054;2023-07-22T04:24:35;97967.00;;;20.83;100.00
19447;BME280;9862;49.462;11.054;2023-07-22T04:27:02;97979.00;;;20.56;100.00
19447;BME280;9862;49.462;11.054;2023-07-22T04:29:28;97986.56;;;20.34;100.00
19447;BME280;9862;49.462;11.054;2023-07-22T04:31:57;97970.94;;;20.00;100.00
19447;BME280;9862;49.462;11.054;2023-07-22T04:34:28;97980.66;;;19.66;100.00
19447;BME280;9862;49.462;11.054;2023-07-22T04:36:55;97984.63;;;19.48;100.00
19447;BME280;9862;49.462;11.054;2023-07-22T04:39:22;97983.28;;;19.40;100.00
19447;BME280;9862;49.462;11.054;2023-07-22T04:41:50;97982.72;;;19.33;100.00
19447;BME280;9862;49.462;11.054;2023-07-22T04:44:17;97976.78;;;19.36;100.00
19447;BME280;9862;49.462;11.054;2023-07-22T04:46:44;97973.06;;;19.58;100.00
19447;BME280;9862;49.462;11.054;2023-07-22T04:49:11;97973.38;;;19.92;100.00
19447;BME280;9862;49.462;11.054;2023-07-22T04:51:39;97968.22;;;20.21;100.00
19447;BME280;9862;49.462;11.054;2023-07-22T04:54:06;97966.84;;;20.49;100.00
19447;BME280;9862;49.462;11.054;2023-07-22T04:56:33;97960.03;;;20.72;100.00
19447;BME280;9862;49.462;11.054;2023-07-22T04:59:01;97967.25;;;20.92;100.00
19447;BME280;9862;49.462;11.054;2023-07-22T05:01:29;97980.78;;;20.97;100.00
19447;BME280;9862;49.462;11.054;2023-07-22T05:03:56;97987.50;;;20.99;100.00
19447;BME280;9862;49.462;11.054;2023-07-22T05:06:23;97993.50;;;20.96;100.00
19447;BME280;9862;49.462;11.054;2023-07-22T05:08:51;97998.09;;;20.96;100.00
19447;BME280;9862;49.462;11.054;2023-07-22T05:11:19;97993.81;;;20.79;100.00
19447;BME280;9862;49.462;11.054;2023-07-22T05:13:48;98002.50;;;20.61;100.00
19447;BME280;9862;49.462;11.054;2023-07-22T05:16:15;98001.94;;;20.64;100.00
19447;BME280;9862;49.462;11.054;2023-07-22T05:18:42;98004.63;;;20.79;100.00
19447;BME280;9862;49.462;11.054;2023-07-22T05:21:09;97994.00;;;20.98;100.00
19447;BME280;9862;49.462;11.054;2023-07-22T05:23:36;97998.28;;;21.14;100.00
19447;BME280;9862;49.462;11.054;2023-07-22T05:26:04;98006.13;;;21.16;100.00
19447;BME280;9862;49.462;11.054;2023-07-22T05:28:31;97996.91;;;21.17;100.00
19447;BME280;9862;49.462;11.054;2023-07-22T05:30:57;97997.72;;;21.12;100.00
19447;BME280;9862;49.462;11.054;2023-07-22T05:33:24;97999.66;;;21.07;100.00
19447;BME280;9862;49.462;11.054;2023-07-22T05:35:51;98003.19;;;21.07;100.00
19447;BME280;9862;49.462;11.054;2023-07-22T05:38:17;98002.38;;;21.02;100.00
19447;BME280;9862;49.462;11.054;2023-07-22T05:40:45;97994.81;;;21.04;100.00
19447;BME280;9862;49.462;11.054;2023-07-22T05:43:13;97996.16;;;21.06;100.00
19447;BME280;9862;49.462;11.054;2023-07-22T05:45:40;97996.41;;;21.10;100.00
19447;BME280;9862;49.462;11.054;2023-07-22T05:48:07;98007.75;;;21.17;100.00
19447;BME280;9862;49.462;11.054;2023-07-22T05:50:34;98011.81;;;21.14;100.00
19447;BME280;9862;49.462;11.054;2023-07-22T05:53:01;98001.00;;;21.14;100.00
19447;BME280;9862;49.462;11.054;2023-07-22T05:55:29;98011.53;;;21.16;100.00
19447;BME280;9862;49.462;11.054;2023-07-22T05:57:56;98010.22;;;21.08;100.00
19447;BME280;9862;49.462;11.054;2023-07-22T06:00:25;98005.94;;;20.97;100.00
19447;BME280;9862;49.462;11.054;2023-07-22T06:02:51;98010.84;;;20.80;100.00
19447;BME280;9862;49.462;11.054;2023-07-22T06:05:18;98018.47;;;20.68;100.00
19447;BME280;9862;49.462;11.054;2023-07-22T06:07:45;98018.47;;;20.68;100.00
19447;BME280;9862;49.462;11.054;2023-07-22T06:10:12;98023.31;;;20.71;100.00
19447;BME280;9862;49.462;11.054;2023-07-22T06:12:39;98031.38;;;20.96;100.00
19447;BME280;9862;49.462;11.054;2023-07-22T06:15:07;98034.63;;;20.83;100.00
19447;BME280;9862;49.462;11.054;2023-07-22T06:17:35;98033.03;;;20.87;100.00
19447;BME280;9862;49.462;11.054;2023-07-22T06:20:04;98042.25;;;20.55;100.00
19447;BME280;9862;49.462;11.054;2023-07-22T06:22:33;98049.88;;;20.48;100.00
19447;BME280;9862;49.462;11.054;2023-07-22T06:24:59;98055.81;;;20.50;100.00
19447;BME280;9862;49.462;11.054;2023-07-22T06:27:26;98056.88;;;20.44;100.00
19447;BME280;9862;49.462;11.054;2023-07-22T06:29:52;98057.16;;;20.38;100.00
19447;BME280;9862;49.462;11.054;2023-07-22T06:32:20;98057.41;;;20.41;100.00
19447;BME280;9862;49.462;11.054;2023-07-22T06:34:48;98059.84;;;20.53;100.00
19447;BME280;9862;49.462;11.054;2023-07-22T06:37:15;98063.38;;;20.58;100.00
19447;BME280;9862;49.462;11.054;2023-07-22T06:39:42;98062.84;;;20.46;100.00
19447;BME280;9862;49.462;11.054;2023-07-22T06:42:09;98070.09;;;20.36;100.00
19447;BME280;9862;49.462;11.054;2023-07-22T06:44:35;98061.75;;;20.27;100.00
19447;BME280;9862;49.462;11.054;2023-07-22T06:47:02;98060.94;;;20.37;100.00
19447;BME280;9862;49.462;11.054;2023-07-22T06:49:29;98067.41;;;20.30;100.00
19447;BME280;9862;49.462;11.054;2023-07-22T06:51:58;98068.47;;;20.04;100.00
19447;BME280;9862;49.462;11.054;2023-07-22T06:54:26;98067.66;;;19.88;100.00
19447;BME280;9862;49.462;11.054;2023-07-22T06:56:53;98068.69;;;19.77;100.00
19447;BME280;9862;49.462;11.054;2023-07-22T06:59:20;98072.75;;;19.69;100.00
19447;BME280;9862;49.462;11.054;2023-07-22T07:01:47;98073.78;;;19.68;100.00
19447;BME280;9862;49.462;11.054;2023-07-22T07:04:13;98068.72;;;19.82;100.00
19447;BME280;9862;49.462;11.054;2023-07-22T07:06:40;98066.03;;;19.92;100.00
19447;BME280;9862;49.462;11.054;2023-07-22T07:09:08;98070.59;;;19.82;100.00
19447;BME280;9862;49.462;11.054;2023-07-22T07:11:34;98068.13;;;19.60;100.00
19447;BME280;9862;49.462;11.054;2023-07-22T07:14:01;98075.06;;;19.40;100.00
19447;BME280;9862;49.462;11.054;2023-07-22T07:16:30;98079.06;;;19.33;100.00
19447;BME280;9862;49.462;11.054;2023-07-22T07:18:58;98076.63;;;19.36;100.00
19447;BME280;9862;49.462;11.054;2023-07-22T07:21:25;98085.31;;;19.43;100.00
19447;BME280;9862;49.462;11.054;2023-07-22T07:23:54;98086.91;;;19.34;100.00
19447;BME280;9862;49.462;11.054;2023-07-22T07:26:22;98087.16;;;19.38;100.00
19447;BME280;9862;49.462;11.054;2023-07-22T07:28:49;98088.00;;;19.43;100.00
19447;BME280;9862;49.462;11.054;2023-07-22T07:31:16;98086.13;;;19.49;100.00
19447;BME280;9862;49.462;11.054;2023-07-22T07:33:43;98088.00;;;19.49;100.00
19447;BME280;9862;49.462;11.054;2023-07-22T07:36:09;98102.91;;;19.51;100.00
19447;BME280;9862;49.462;11.054;2023-07-22T07:38:36;98096.44;;;19.57;100.00
19447;BME280;9862;49.462;11.054;2023-07-22T07:41:04;98111.03;;;19.56;100.00
19447;BME280;9862;49.462;11.054;2023-07-22T07:43:35;98104.28;;;19.59;100.00
19447;BME280;9862;49.462;11.054;2023-07-22T07:46:12;98109.97;;;19.62;100.00
19447;BME280;9862;49.462;11.054;2023-07-22T07:48:39;98098.41;;;19.72;100.00
19447;BME280;9862;49.462;11.054;2023-07-22T07:51:07;98110.81;;;19.73;100.00
19447;BME280;9862;49.462;11.054;2023-07-22T07:53:33;98095.97;;;19.70;100.00
19447;BME280;9862;49.462;11.054;2023-07-22T07:56:00;98109.19;;;19.72;100.00
19447;BME280;9862;49.462;11.054;2023-07-22T07:58:28;98111.09;;;19.77;100.00
19447;BME280;9862;49.462;11.054;2023-07-22T08:00:56;98113.25;;;19.75;100.00
19447;BME280;9862;49.462;11.054;2023-07-22T08:03:23;98107.63;;;19.91;100.00
19447;BME280;9862;49.462;11.054;2023-07-22T08:05:50;98103.00;;;19.71;100.00
19447;BME280;9862;49.462;11.054;2023-07-22T08:08:17;98109.19;;;19.72;100.00
19447;BME280;9862;49.462;11.054;2023-07-22T08:10:44;98104.38;;;19.79;100.00
19447;BME280;9862;49.462;11.054;2023-07-22T08:13:11;98094.66;;;19.93;100.00
19447;BME280;9862;49.462;11.054;2023-07-22T08:15:38;98096.28;;;20.05;100.00
19447;BME280;9862;49.462;11.054;2023-07-22T08:18:06;98094.13;;;20.17;100.00
19447;BME280;9862;49.462;11.054;2023-07-22T08:20:33;98099.28;;;20.34;100.00
19447;BME280;9862;49.462;11.054;2023-07-22T08:23:00;98099.03;;;20.40;100.00
19447;BME280;9862;49.462;11.054;2023-07-22T08:25:28;98090.94;;;20.45;100.00
19447;BME280;9862;49.462;11.054;2023-07-22T08:27:54;98092.03;;;20.49;100.00
19447;BME280;9862;49.462;11.054;2023-07-22T08:30:22;98088.25;;;20.61;100.00
19447;BME280;9862;49.462;11.054;2023-07-22T08:32:49;98083.91;;;20.65;100.00
19447;BME280;9862;49.462;11.054;2023-07-22T08:35:19;98077.69;;;20.69;100.00
19447;BME280;9862;49.462;11.054;2023-07-22T08:37:48;98077.41;;;20.76;100.00
19447;BME280;9862;49.462;11.054;2023-07-22T08:40:17;98075.22;;;20.83;100.00
19447;BME280;9862;49.462;11.054;2023-07-22T08:42:45;98069.53;;;20.90;100.00
19447;BME280;9862;49.462;11.054;2023-07-22T08:45:13;98075.19;;;20.98;100.00
19447;BME280;9862;49.462;11.054;2023-07-22T08:47:46;98079.47;;;21.09;100.00
19447;BME280;9862;49.462;11.054;2023-07-22T08:50:19;98084.34;;;21.12;100.00
19447;BME280;9862;49.462;11.054;2023-07-22T08:52:48;98077.03;;;21.18;100.00
19447;BME280;9862;49.462;11.054;2023-07-22T08:55:15;98083.25;;;21.24;100.00
19447;BME280;9862;49.462;11.054;2023-07-22T08:57:42;98080.53;;;21.34;100.00
19447;BME280;9862;49.462;11.054;2023-07-22T09:00:10;98083.97;;;21.50;100.00
19447;BME280;9862;49.462;11.054;2023-07-22T09:02:39;98071.78;;;21.52;100.00
19447;BME280;9862;49.462;11.054;2023-07-22T09:05:08;98075.31;;;21.53;100.00
19447;BME280;9862;49.462;11.054;2023-07-22T09:07:36;98071.81;;;21.42;100.00
19447;BME280;9862;49.462;11.054;2023-07-22T09:10:06;98070.81;;;21.18;100.00
19447;BME280;9862;49.462;11.054;2023-07-22T09:12:35;98066.50;;;21.06;100.00
19447;BME280;9862;49.462;11.054;2023-07-22T09:15:08;98066.50;;;21.06;100.00
19447;BME280;9862;49.462;11.054;2023-07-22T09:17:36;98060.53;;;21.09;100.00
19447;BME280;9862;49.462;11.054;2023-07-22T09:20:05;98065.91;;;21.20;100.00
19447;BME280;9862;49.462;11.054;2023-07-22T09:22:32;98059.69;;;21.34;100.00
19447;BME280;9862;49.462;11.054;2023-07-22T09:25:14;98062.00;;;21.51;100.00
19447;BME280;9862;49.462;11.054;2023-07-22T09:27:41;98059.53;;;21.60;100.00
19447;BME280;9862;49.462;11.054;2023-07-22T09:30:23;98052.16;;;21.70;100.00
19447;BME280;9862;49.462;11.054;2023-07-22T09:32:52;98047.75;;;21.80;100.00
19447;BME280;9862;49.462;11.054;2023-07-22T09:35:19;98039.91;;;21.83;100.00
19447;BME280;9862;49.462;11.054;2023-07-22T09:37:46;98044.97;;;21.95;100.00
19447;BME280;9862;49.462;11.054;2023-07-22T09:40:16;98043.25;;;22.09;100.00
19447;BME280;9862;49.462;11.054;2023-07-22T09:42:45;98045.38;;;22.17;100.00
19447;BME280;9862;49.462;11.054;2023-07-22T09:45:13;98040.44;;;22.24;100.00
19447;BME280;9862;49.462;11.054;2023-07-22T09:47:40;98038.25;;;22.26;100.00
19447;BME280;9862;49.462;11.054;2023-07-22T09:50:10;98028.50;;;22.54;88.94
19447;BME280;9862;49.462;11.054;2023-07-22T09:52:42;98037.59;;;22.40;88.09
19447;BME280;9862;49.462;11.054;2023-07-22T09:55:10;98031.53;;;22.48;86.73
19447;BME280;9862;49.462;11.054;2023-07-22T09:57:41;98023.78;;;22.65;96.59
19447;BME280;9862;49.462;11.054;2023-07-22T10:00:10;98023.22;;;22.68;100.00
19447;BME280;9862;49.462;11.054;2023-07-22T10:02:42;98014.91;;;22.60;100.00
19447;BME280;9862;49.462;11.054;2023-07-22T10:05:14;98028.56;;;22.49;100.00
19447;BME280;9862;49.462;11.054;2023-07-22T10:07:46;98012.50;;;22.53;100.00
19447;BME280;9862;49.462;11.054;2023-07-22T10:10:16;98010.84;;;22.57;100.00
19447;BME280;9862;49.462;11.054;2023-07-22T10:12:51;98005.38;;;22.62;93.31
19447;BME280;9862;49.462;11.054;2023-07-22T10:15:29;98004.28;;;22.63;90.40
19447;BME280;9862;49.462;11.054;2023-07-22T10:18:00;98013.09;;;22.50;85.61
19447;BME280;9862;49.462;11.054;2023-07-22T10:20:28;97998.25;;;22.42;88.74
19447;BME280;9862;49.462;11.054;2023-07-22T10:22:55;98004.38;;;22.53;85.61
19447;BME280;9862;49.462;11.054;2023-07-22T10:25:22;97999.88;;;22.43;84.13
19447;BME280;9862;49.462;11.054;2023-07-22T10:27:51;98007.13;;;22.48;83.92
19447;BME280;9862;49.462;11.054;2023-07-22T10:30:19;98012.03;;;22.17;88.39
19447;BME280;9862;49.462;11.054;2023-07-22T10:32:47;98004.56;;;21.98;89.33
19447;BME280;9862;49.462;11.054;2023-07-22T10:35:17;98000.75;;;21.99;96.86
19447;BME280;9862;49.462;11.054;2023-07-22T10:37:49;98001.00;;;22.03;100.00
19447;BME280;9862;49.462;11.054;2023-07-22T10:40:18;98003.94;;;22.12;98.11
19447;BME280;9862;49.462;11.054;2023-07-22T10:42:56;98003.19;;;22.01;98.73
19447;BME280;9862;49.462;11.054;2023-07-22T10:45:28;98002.13;;;21.97;99.81
19447;BME280;9862;49.462;11.054;2023-07-22T10:48:03;97998.59;;;22.02;100.00
19447;BME280;9862;49.462;11.054;2023-07-22T10:50:42;97998.81;;;22.05;92.05
19447;BME280;9862;49.462;11.054;2023-07-22T10:53:10;97993.94;;;22.07;91.59
19447;BME280;9862;49.462;11.054;2023-07-22T10:56:06;98003.09;;;22.16;91.36
19447;BME280;9862;49.462;11.054;2023-07-22T10:58:59;97993.53;;;22.53;85.57
19447;BME280;9862;49.462;11.054;2023-07-22T11:01:34;97999.56;;;22.45;87.36
19447;BME280;9862;49.462;11.054;2023-07-22T11:04:04;97989.19;;;22.52;85.86
19447;BME280;9862;49.462;11.054;2023-07-22T11:06:33;97992.31;;;22.64;88.67
19447;BME280;9862;49.462;11.054;2023-07-22T11:09:00;97987.78;;;22.60;87.81
19447;BME280;9862;49.462;11.054;2023-07-22T11:11:35;97984.28;;;22.54;86.76
19447;BME280;9862;49.462;11.054;2023-07-22T11:14:15;97988.31;;;22.56;85.68
19447;BME280;9862;49.462;11.054;2023-07-22T11:16:44;97990.34;;;22.46;85.49
19447;BME280;9862;49.462;11.054;2023-07-22T11:19:12;97979.44;;;22.51;86.37
19447;BME280;9862;49.462;11.054;2023-07-22T11:21:40;97974.34;;;22.44;85.34
19447;BME280;9862;49.462;11.054;2023-07-22T11:24:07;97976.84;;;22.41;87.02
19447;BME280;9862;49.462;11.054;2023-07-22T11:26:34;97975.63;;;22.52;85.70
19447;BME280;9862;49.462;11.054;2023-07-22T11:29:02;97965.25;;;22.59;84.82
19447;BME280;9862;49.462;11.054;2023-07-22T11:31:34;97956.31;;;22.59;87.08
19447;BME280;9862;49.462;11.054;2023-07-22T11:34:02;97961.84;;;22.72;84.43
19447;BME280;9862;49.462;11.054;2023-07-22T11:36:29;97962.84;;;22.81;85.18
19447;BME280;9862;49.462;11.054;2023-07-22T11:39:01;97958.06;;;22.97;82.60
19447;BME280;9862;49.462;11.054;2023-07-22T11:41:29;97965.03;;;22.79;80.93
19447;BME280;9862;49.462;11.054;2023-07-22T11:43:57;97954.28;;;22.69;83.60
19447;BME280;9862;49.462;11.054;2023-07-22T11:46:24;97960.75;;;22.73;84.12
19447;BME280;9862;49.462;11.054;2023-07-22T11:48:53;97958.25;;;22.77;84.22
19447;BME280;9862;49.462;11.054;2023-07-22T11:51:20;97956.84;;;22.84;83.31
19447;BME280;9862;49.462;11.054;2023-07-22T11:53:49;97961.25;;;22.75;84.70
19447;BME280;9862;49.462;11.054;2023-07-22T11:56:20;97951.59;;;22.69;85.94
19447;BME280;9862;49.462;11.054;2023-07-22T11:58:51;97955.09;;;22.70;87.51
19447;BME280;9862;49.462;11.054;2023-07-22T12:01:18;97937.47;;;22.67;88.87
19447;BME280;9862;49.462;11.054;2023-07-22T12:03:46;97942.72;;;22.82;87.00
19447;BME280;9862;49.462;11.054;2023-07-22T12:06:15;97934.03;;;22.85;87.53
19447;BME280;9862;49.462;11.054;2023-07-22T12:08:46;97933.25;;;23.04;85.07
19447;BME280;9862;49.462;11.054;2023-07-22T12:11:17;97925.88;;;23.09;85.88
19447;BME280;9862;49.462;11.054;2023-07-22T12:13:44;97918.88;;;23.22;85.29
19447;BME280;9862;49.462;11.054;2023-07-22T12:16:21;97917.72;;;23.28;86.60
19447;BME280;9862;49.462;11.054;2023-07-22T12:18:54;97912.44;;;23.56;81.52
19447;BME280;9862;49.462;11.054;2023-07-22T12:21:23;97919.69;;;23.79;77.19
19447;BME280;9862;49.462;11.054;2023-07-22T12:23:53;97905.91;;;23.76;74.48
19447;BME280;9862;49.462;11.054;2023-07-22T12:26:20;97901.44;;;23.66;74.21
19447;BME280;9862;49.462;11.054;2023-07-22T12:28:46;97907.66;;;23.48;76.33
19447;BME280;9862;49.462;11.054;2023-07-22T12:31:13;97898.94;;;23.32;79.14
19447;BME280;9862;49.462;11.054;2023-07-22T12:33:41;97891.94;;;23.26;81.74
19447;BME280;9862;49.462;11.054;2023-07-22T12:36:07;97894.16;;;23.42;80.60
19447;BME280;9862;49.462;11.054;2023-07-22T12:38:36;97895.50;;;23.26;81.09
19447;BME280;9862;49.462;11.054;2023-07-22T12:41:02;97890.72;;;23.18;83.23
19447;BME280;9862;49.462;11.054;2023-07-22T12:43:29;97879.41;;;23.30;82.69
19447;BME280;9862;49.462;11.054;2023-07-22T12:45:57;97882.94;;;23.30;85.16
19447;BME280;9862;49.462;11.054;2023-07-22T12:48:24;97874.16;;;23.52;85.75
19447;BME280;9862;49.462;11.054;2023-07-22T12:50:51;97873.47;;;23.79;78.44
19447;BME280;9862;49.462;11.054;2023-07-22T12:53:18;97863.72;;;23.78;75.40
19447;BME280;9862;49.462;11.054;2023-07-22T12:55:46;97867.03;;;23.75;75.71
19447;BME280;9862;49.462;11.054;2023-07-22T12:58:14;97862.34;;;23.62;75.55